Terminal Aerodrome Forecast
Issued by NWS Mobile, AL

Home | Current Version | Previous Version | Text Only | Print | Product List | Glossary On
Versions: 1 2 3 4 5 6 7 8 9 10 11 12 13 14 15 16 17 18 19 20 21 22 23 24 25 26 27 28 29 30 31 32
000
FTUS44 KMOB 191700
TAFMOB
TAF
KMOB 191725Z 1918/2018 VRB03KT P6SM FEW025 SCT070 BKN250
     FM192100 14007KT P6SM VCTS SCT040CB
     FM200100 08004KT P6SM FEW040
     FM201500 07010KT P6SM SCT040=

USA.gov is the U.S. government's official web portal to all federal, state and local government web resources and services.